sensor_id;sensor_type;location;lat;lon;timestamp;P1;durP1;ratioP1;P2;durP2;ratioP2
25207;SDS011;13153;52.316;21.166;2023-09-19T00:00:45;11.50;;;9.40;;
25207;SDS011;13153;52.316;21.166;2023-09-19T00:03:14;12.75;;;9.65;;
25207;SDS011;13153;52.316;21.166;2023-09-19T00:05:41;14.35;;;9.50;;
25207;SDS011;13153;52.316;21.166;2023-09-19T00:08:10;13.10;;;9.90;;
25207;SDS011;13153;52.316;21.166;2023-09-19T00:10:38;12.93;;;10.13;;
25207;SDS011;13153;52.316;21.166;2023-09-19T00:13:06;16.33;;;10.45;;
25207;SDS011;13153;52.316;21.166;2023-09-19T00:15:38;15.02;;;9.98;;
25207;SDS011;13153;52.316;21.166;2023-09-19T00:18:16;13.45;;;10.73;;
25207;SDS011;13153;52.316;21.166;2023-09-19T00:20:46;12.93;;;9.93;;
25207;SDS011;13153;52.316;21.166;2023-09-19T00:23:16;13.02;;;9.98;;
25207;SDS011;13153;52.316;21.166;2023-09-19T00:25:44;13.88;;;10.57;;
25207;SDS011;13153;52.316;21.166;2023-09-19T00:28:10;13.55;;;10.40;;
25207;SDS011;13153;52.316;21.166;2023-09-19T00:30:36;12.35;;;10.23;;
25207;SDS011;13153;52.316;21.166;2023-09-19T00:33:03;18.67;;;11.18;;
25207;SDS011;13153;52.316;21.166;2023-09-19T00:35:31;13.63;;;10.05;;
25207;SDS011;13153;52.316;21.166;2023-09-19T00:37:58;15.43;;;10.40;;
25207;SDS011;13153;52.316;21.166;2023-09-19T00:40:24;16.15;;;10.57;;
25207;SDS011;13153;52.316;21.166;2023-09-19T00:42:51;14.23;;;10.20;;
25207;SDS011;13153;52.316;21.166;2023-09-19T00:45:17;15.07;;;10.38;;
25207;SDS011;13153;52.316;21.166;2023-09-19T00:47:47;19.08;;;10.55;;
25207;SDS011;13153;52.316;21.166;2023-09-19T00:50:15;13.88;;;10.07;;
25207;SDS011;13153;52.316;21.166;2023-09-19T00:52:47;13.35;;;9.80;;
25207;SDS011;13153;52.316;21.166;2023-09-19T00:55:18;13.82;;;10.10;;
25207;SDS011;13153;52.316;21.166;2023-09-19T00:57:44;11.95;;;9.77;;
25207;SDS011;13153;52.316;21.166;2023-09-19T01:00:12;13.85;;;10.68;;
25207;SDS011;13153;52.316;21.166;2023-09-19T01:02:44;13.55;;;11.30;;
25207;SDS011;13153;52.316;21.166;2023-09-19T01:05:10;15.57;;;11.00;;
25207;SDS011;13153;52.316;21.166;2023-09-19T01:07:40;14.45;;;11.27;;
25207;SDS011;13153;52.316;21.166;2023-09-19T01:10:28;11.80;;;10.23;;
25207;SDS011;13153;52.316;21.166;2023-09-19T01:19:07;13.65;;;10.55;;
25207;SDS011;13153;52.316;21.166;2023-09-19T01:31:12;12.57;;;10.35;;
25207;SDS011;13153;52.316;21.166;2023-09-19T01:33:56;14.88;;;11.00;;
25207;SDS011;13153;52.316;21.166;2023-09-19T01:36:30;13.15;;;10.90;;
25207;SDS011;13153;52.316;21.166;2023-09-19T01:39:02;17.27;;;11.13;;
25207;SDS011;13153;52.316;21.166;2023-09-19T01:41:41;16.45;;;10.80;;
25207;SDS011;13153;52.316;21.166;2023-09-19T01:47:52;13.07;;;10.13;;
25207;SDS011;13153;52.316;21.166;2023-09-19T01:51:05;12.40;;;10.15;;
25207;SDS011;13153;52.316;21.166;2023-09-19T01:56:00;12.65;;;10.93;;
25207;SDS011;13153;52.316;21.166;2023-09-19T01:58:34;12.57;;;10.52;;
25207;SDS011;13153;52.316;21.166;2023-09-19T02:01:04;15.43;;;11.02;;
25207;SDS011;13153;52.316;21.166;2023-09-19T02:03:36;12.82;;;9.82;;
25207;SDS011;13153;52.316;21.166;2023-09-19T02:06:04;13.88;;;10.55;;
25207;SDS011;13153;52.316;21.166;2023-09-19T02:08:30;13.27;;;10.80;;
25207;SDS011;13153;52.316;21.166;2023-09-19T02:10:59;13.90;;;11.05;;
25207;SDS011;13153;52.316;21.166;2023-09-19T02:13:25;17.85;;;11.05;;
25207;SDS011;13153;52.316;21.166;2023-09-19T02:15:53;13.63;;;10.82;;
25207;SDS011;13153;52.316;21.166;2023-09-19T02:18:18;13.02;;;10.73;;
25207;SDS011;13153;52.316;21.166;2023-09-19T02:20:45;13.02;;;11.00;;
25207;SDS011;13153;52.316;21.166;2023-09-19T02:23:11;15.52;;;10.55;;
25207;SDS011;13153;52.316;21.166;2023-09-19T02:25:38;14.43;;;11.02;;
25207;SDS011;13153;52.316;21.166;2023-09-19T02:28:05;14.73;;;10.27;;
25207;SDS011;13153;52.316;21.166;2023-09-19T02:30:32;15.63;;;10.73;;
25207;SDS011;13153;52.316;21.166;2023-09-19T02:32:58;13.55;;;10.57;;
25207;SDS011;13153;52.316;21.166;2023-09-19T02:35:27;15.57;;;10.88;;
25207;SDS011;13153;52.316;21.166;2023-09-19T02:37:53;16.45;;;11.18;;
25207;SDS011;13153;52.316;21.166;2023-09-19T02:40:19;12.95;;;10.63;;
25207;SDS011;13153;52.316;21.166;2023-09-19T02:42:48;14.57;;;11.20;;
25207;SDS011;13153;52.316;21.166;2023-09-19T02:45:19;14.70;;;10.77;;
25207;SDS011;13153;52.316;21.166;2023-09-19T02:47:45;14.82;;;10.43;;
25207;SDS011;13153;52.316;21.166;2023-09-19T02:50:12;13.73;;;11.18;;
25207;SDS011;13153;52.316;21.166;2023-09-19T02:52:43;14.35;;;11.10;;
25207;SDS011;13153;52.316;21.166;2023-09-19T02:55:11;16.48;;;11.65;;
25207;SDS011;13153;52.316;21.166;2023-09-19T02:57:44;14.43;;;11.05;;
25207;SDS011;13153;52.316;21.166;2023-09-19T03:00:15;13.70;;;10.68;;
25207;SDS011;13153;52.316;21.166;2023-09-19T03:02:46;14.15;;;11.10;;
25207;SDS011;13153;52.316;21.166;2023-09-19T03:05:20;13.67;;;10.33;;
25207;SDS011;13153;52.316;21.166;2023-09-19T03:07:48;13.25;;;10.65;;
25207;SDS011;13153;52.316;21.166;2023-09-19T03:10:18;13.43;;;10.50;;
25207;SDS011;13153;52.316;21.166;2023-09-19T03:12:49;13.50;;;11.05;;
25207;SDS011;13153;52.316;21.166;2023-09-19T03:15:15;12.68;;;10.35;;
25207;SDS011;13153;52.316;21.166;2023-09-19T03:17:47;16.95;;;11.15;;
25207;SDS011;13153;52.316;21.166;2023-09-19T03:20:14;16.77;;;11.48;;
25207;SDS011;13153;52.316;21.166;2023-09-19T03:22:44;17.05;;;11.23;;
25207;SDS011;13153;52.316;21.166;2023-09-19T03:25:10;15.38;;;11.00;;
25207;SDS011;13153;52.316;21.166;2023-09-19T03:27:39;14.90;;;11.57;;
25207;SDS011;13153;52.316;21.166;2023-09-19T03:30:06;13.77;;;10.30;;
25207;SDS011;13153;52.316;21.166;2023-09-19T03:32:43;16.90;;;11.15;;
25207;SDS011;13153;52.316;21.166;2023-09-19T03:35:11;13.57;;;11.05;;
25207;SDS011;13153;52.316;21.166;2023-09-19T03:37:39;13.52;;;11.05;;
25207;SDS011;13153;52.316;21.166;2023-09-19T03:40:07;15.55;;;10.90;;
25207;SDS011;13153;52.316;21.166;2023-09-19T03:42:37;16.00;;;11.82;;
25207;SDS011;13153;52.316;21.166;2023-09-19T03:45:05;13.98;;;11.00;;
25207;SDS011;13153;52.316;21.166;2023-09-19T03:47:36;14.32;;;10.80;;
25207;SDS011;13153;52.316;21.166;2023-09-19T03:50:02;16.35;;;11.38;;
25207;SDS011;13153;52.316;21.166;2023-09-19T03:52:28;12.70;;;10.35;;
25207;SDS011;13153;52.316;21.166;2023-09-19T03:54:54;15.30;;;10.32;;
25207;SDS011;13153;52.316;21.166;2023-09-19T03:57:20;15.48;;;10.88;;
25207;SDS011;13153;52.316;21.166;2023-09-19T03:59:46;15.05;;;11.13;;
25207;SDS011;13153;52.316;21.166;2023-09-19T04:02:12;16.88;;;10.35;;
25207;SDS011;13153;52.316;21.166;2023-09-19T04:04:47;14.77;;;10.40;;
25207;SDS011;13153;52.316;21.166;2023-09-19T04:07:14;14.18;;;10.85;;
25207;SDS011;13153;52.316;21.166;2023-09-19T04:09:40;12.45;;;10.15;;
25207;SDS011;13153;52.316;21.166;2023-09-19T04:12:07;14.13;;;10.80;;
25207;SDS011;13153;52.316;21.166;2023-09-19T04:14:36;15.77;;;10.73;;
25207;SDS011;13153;52.316;21.166;2023-09-19T04:17:02;15.15;;;10.38;;
25207;SDS011;13153;52.316;21.166;2023-09-19T04:19:28;12.27;;;10.60;;
25207;SDS011;13153;52.316;21.166;2023-09-19T04:21:54;14.27;;;11.20;;
25207;SDS011;13153;52.316;21.166;2023-09-19T04:24:20;14.85;;;10.93;;
25207;SDS011;13153;52.316;21.166;2023-09-19T04:26:45;14.32;;;11.40;;
25207;SDS011;13153;52.316;21.166;2023-09-19T04:29:12;15.00;;;10.98;;
25207;SDS011;13153;52.316;21.166;2023-09-19T04:31:39;15.93;;;11.20;;
25207;SDS011;13153;52.316;21.166;2023-09-19T04:34:05;15.63;;;10.93;;
25207;SDS011;13153;52.316;21.166;2023-09-19T04:36:32;15.20;;;10.88;;
25207;SDS011;13153;52.316;21.166;2023-09-19T04:38:58;17.35;;;11.15;;
25207;SDS011;13153;52.316;21.166;2023-09-19T04:41:24;16.08;;;10.10;;
25207;SDS011;13153;52.316;21.166;2023-09-19T04:43:50;13.40;;;10.75;;
25207;SDS011;13153;52.316;21.166;2023-09-19T04:46:16;15.80;;;10.25;;
25207;SDS011;13153;52.316;21.166;2023-09-19T04:48:42;17.30;;;10.88;;
25207;SDS011;13153;52.316;21.166;2023-09-19T04:51:08;15.32;;;10.82;;
25207;SDS011;13153;52.316;21.166;2023-09-19T04:53:35;16.90;;;10.95;;
25207;SDS011;13153;52.316;21.166;2023-09-19T04:56:02;14.18;;;10.07;;
25207;SDS011;13153;52.316;21.166;2023-09-19T04:58:28;15.32;;;10.40;;
25207;SDS011;13153;52.316;21.166;2023-09-19T05:00:55;16.38;;;10.32;;
25207;SDS011;13153;52.316;21.166;2023-09-19T05:03:21;13.63;;;10.35;;
25207;SDS011;13153;52.316;21.166;2023-09-19T05:05:47;14.98;;;10.93;;
25207;SDS011;13153;52.316;21.166;2023-09-19T05:08:14;13.93;;;10.85;;
25207;SDS011;13153;52.316;21.166;2023-09-19T05:10:40;14.25;;;10.07;;
25207;SDS011;13153;52.316;21.166;2023-09-19T05:13:06;14.10;;;9.82;;
25207;SDS011;13153;52.316;21.166;2023-09-19T05:15:34;16.05;;;10.63;;
25207;SDS011;13153;52.316;21.166;2023-09-19T05:18:00;13.07;;;10.50;;
25207;SDS011;13153;52.316;21.166;2023-09-19T05:20:26;14.95;;;9.95;;
25207;SDS011;13153;52.316;21.166;2023-09-19T05:23:06;13.95;;;10.25;;
25207;SDS011;13153;52.316;21.166;2023-09-19T05:25:34;12.20;;;9.70;;
25207;SDS011;13153;52.316;21.166;2023-09-19T05:28:08;15.07;;;10.48;;
25207;SDS011;13153;52.316;21.166;2023-09-19T05:30:39;12.88;;;9.43;;
25207;SDS011;13153;52.316;21.166;2023-09-19T05:33:08;14.15;;;10.18;;
25207;SDS011;13153;52.316;21.166;2023-09-19T05:35:34;13.18;;;9.23;;
25207;SDS011;13153;52.316;21.166;2023-09-19T05:38:06;15.70;;;9.55;;
25207;SDS011;13153;52.316;21.166;2023-09-19T05:40:37;15.93;;;9.85;;
25207;SDS011;13153;52.316;21.166;2023-09-19T05:43:04;12.68;;;9.45;;
25207;SDS011;13153;52.316;21.166;2023-09-19T05:45:30;16.67;;;9.55;;
25207;SDS011;13153;52.316;21.166;2023-09-19T05:48:05;13.27;;;9.48;;
25207;SDS011;13153;52.316;21.166;2023-09-19T05:50:34;14.57;;;9.18;;
25207;SDS011;13153;52.316;21.166;2023-09-19T05:53:01;16.35;;;10.52;;
25207;SDS011;13153;52.316;21.166;2023-09-19T05:55:27;15.02;;;9.75;;
25207;SDS011;13153;52.316;21.166;2023-09-19T05:57:53;15.30;;;9.15;;
25207;SDS011;13153;52.316;21.166;2023-09-19T06:00:20;10.52;;;8.77;;
25207;SDS011;13153;52.316;21.166;2023-09-19T06:02:51;17.45;;;10.82;;
25207;SDS011;13153;52.316;21.166;2023-09-19T06:05:22;17.50;;;10.40;;
25207;SDS011;13153;52.316;21.166;2023-09-19T06:07:51;14.57;;;9.75;;
25207;SDS011;13153;52.316;21.166;2023-09-19T06:10:18;14.20;;;9.77;;
25207;SDS011;13153;52.316;21.166;2023-09-19T06:12:48;15.73;;;10.00;;
25207;SDS011;13153;52.316;21.166;2023-09-19T06:15:14;14.60;;;9.90;;
25207;SDS011;13153;52.316;21.166;2023-09-19T06:17:47;15.68;;;10.48;;
25207;SDS011;13153;52.316;21.166;2023-09-19T06:20:20;16.33;;;9.50;;
25207;SDS011;13153;52.316;21.166;2023-09-19T06:22:47;15.02;;;9.73;;
25207;SDS011;13153;52.316;21.166;2023-09-19T06:25:15;14.35;;;10.27;;
25207;SDS011;13153;52.316;21.166;2023-09-19T06:27:47;13.30;;;9.90;;
25207;SDS011;13153;52.316;21.166;2023-09-19T06:30:17;14.90;;;10.30;;
25207;SDS011;13153;52.316;21.166;2023-09-19T06:32:43;15.98;;;10.70;;
25207;SDS011;13153;52.316;21.166;2023-09-19T06:35:10;16.05;;;10.60;;
25207;SDS011;13153;52.316;21.166;2023-09-19T06:37:38;14.13;;;9.55;;
25207;SDS011;13153;52.316;21.166;2023-09-19T06:40:09;13.65;;;9.50;;
25207;SDS011;13153;52.316;21.166;2023-09-19T06:42:50;16.02;;;10.10;;
25207;SDS011;13153;52.316;21.166;2023-09-19T06:45:21;13.60;;;9.98;;
25207;SDS011;13153;52.316;21.166;2023-09-19T06:47:47;12.65;;;10.25;;
25207;SDS011;13153;52.316;21.166;2023-09-19T06:50:22;17.52;;;9.43;;
25207;SDS011;13153;52.316;21.166;2023-09-19T06:52:49;14.18;;;9.90;;
25207;SDS011;13153;52.316;21.166;2023-09-19T06:55:20;14.05;;;9.30;;
25207;SDS011;13153;52.316;21.166;2023-09-19T06:57:50;15.18;;;8.15;;
25207;SDS011;13153;52.316;21.166;2023-09-19T07:00:16;13.45;;;8.48;;
25207;SDS011;13153;52.316;21.166;2023-09-19T07:02:43;12.63;;;8.82;;
25207;SDS011;13153;52.316;21.166;2023-09-19T07:05:10;12.60;;;8.82;;
25207;SDS011;13153;52.316;21.166;2023-09-19T07:07:36;9.68;;;7.63;;
25207;SDS011;13153;52.316;21.166;2023-09-19T07:10:02;16.40;;;9.02;;
25207;SDS011;13153;52.316;21.166;2023-09-19T07:12:31;12.80;;;8.68;;
25207;SDS011;13153;52.316;21.166;2023-09-19T07:15:00;10.57;;;8.20;;
25207;SDS011;13153;52.316;21.166;2023-09-19T07:17:26;11.73;;;8.60;;
25207;SDS011;13153;52.316;21.166;2023-09-19T07:19:53;12.77;;;8.48;;
25207;SDS011;13153;52.316;21.166;2023-09-19T07:22:18;13.10;;;9.27;;
25207;SDS011;13153;52.316;21.166;2023-09-19T07:24:44;12.93;;;8.70;;
25207;SDS011;13153;52.316;21.166;2023-09-19T07:27:11;11.60;;;8.73;;
25207;SDS011;13153;52.316;21.166;2023-09-19T07:29:37;11.02;;;8.40;;
25207;SDS011;13153;52.316;21.166;2023-09-19T07:32:03;15.45;;;8.77;;
25207;SDS011;13153;52.316;21.166;2023-09-19T07:34:31;16.67;;;8.90;;
25207;SDS011;13153;52.316;21.166;2023-09-19T07:36:56;14.18;;;9.13;;
25207;SDS011;13153;52.316;21.166;2023-09-19T07:39:22;11.80;;;8.45;;
25207;SDS011;13153;52.316;21.166;2023-09-19T07:41:48;14.13;;;8.68;;
25207;SDS011;13153;52.316;21.166;2023-09-19T07:44:14;14.10;;;9.18;;
25207;SDS011;13153;52.316;21.166;2023-09-19T07:46:40;12.75;;;8.95;;
25207;SDS011;13153;52.316;21.166;2023-09-19T07:49:06;11.85;;;8.35;;
25207;SDS011;13153;52.316;21.166;2023-09-19T07:51:33;13.65;;;9.15;;
25207;SDS011;13153;52.316;21.166;2023-09-19T07:53:58;13.73;;;9.07;;
25207;SDS011;13153;52.316;21.166;2023-09-19T07:56:24;11.82;;;8.85;;
25207;SDS011;13153;52.316;21.166;2023-09-19T07:58:52;13.07;;;9.38;;
25207;SDS011;13153;52.316;21.166;2023-09-19T08:01:18;15.68;;;9.68;;
25207;SDS011;13153;52.316;21.166;2023-09-19T08:03:44;14.27;;;9.43;;
25207;SDS011;13153;52.316;21.166;2023-09-19T08:06:10;12.15;;;9.52;;
25207;SDS011;13153;52.316;21.166;2023-09-19T08:08:36;14.50;;;9.43;;
25207;SDS011;13153;52.316;21.166;2023-09-19T08:11:02;14.68;;;9.88;;
25207;SDS011;13153;52.316;21.166;2023-09-19T08:13:40;11.55;;;9.55;;
25207;SDS011;13153;52.316;21.166;2023-09-19T08:16:10;12.98;;;10.05;;
25207;SDS011;13153;52.316;21.166;2023-09-19T08:18:36;13.63;;;10.55;;
25207;SDS011;13153;52.316;21.166;2023-09-19T08:21:05;13.77;;;10.55;;
25207;SDS011;13153;52.316;21.166;2023-09-19T08:23:39;12.77;;;9.85;;
25207;SDS011;13153;52.316;21.166;2023-09-19T08:26:05;13.05;;;10.70;;
25207;SDS011;13153;52.316;21.166;2023-09-19T08:28:33;12.02;;;10.10;;
25207;SDS011;13153;52.316;21.166;2023-09-19T08:31:03;16.02;;;10.50;;
25207;SDS011;13153;52.316;21.166;2023-09-19T08:33:33;14.77;;;10.73;;
25207;SDS011;13153;52.316;21.166;2023-09-19T08:36:02;14.55;;;10.48;;
25207;SDS011;13153;52.316;21.166;2023-09-19T08:38:33;12.82;;;10.40;;
25207;SDS011;13153;52.316;21.166;2023-09-19T08:41:00;16.48;;;10.77;;
25207;SDS011;13153;52.316;21.166;2023-09-19T08:43:32;13.48;;;10.38;;
25207;SDS011;13153;52.316;21.166;2023-09-19T08:51:41;14.00;;;10.57;;
25207;SDS011;13153;52.316;21.166;2023-09-19T08:54:12;14.35;;;10.88;;
25207;SDS011;13153;52.316;21.166;2023-09-19T08:56:54;14.68;;;11.55;;
25207;SDS011;13153;52.316;21.166;2023-09-19T08:59:24;12.88;;;11.13;;
25207;SDS011;13153;52.316;21.166;2023-09-19T09:01:54;13.88;;;10.50;;
25207;SDS011;13153;52.316;21.166;2023-09-19T09:04:22;14.60;;;11.27;;
25207;SDS011;13153;52.316;21.166;2023-09-19T09:06:51;12.23;;;10.23;;
25207;SDS011;13153;52.316;21.166;2023-09-19T09:09:20;15.02;;;10.93;;
25207;SDS011;13153;52.316;21.166;2023-09-19T09:11:47;16.42;;;10.90;;
25207;SDS011;13153;52.316;21.166;2023-09-19T09:14:18;11.32;;;10.13;;
25207;SDS011;13153;52.316;21.166;2023-09-19T09:16:46;15.20;;;9.82;;
25207;SDS011;13153;52.316;21.166;2023-09-19T09:19:13;13.73;;;10.38;;
25207;SDS011;13153;52.316;21.166;2023-09-19T09:21:45;14.27;;;10.18;;
25207;SDS011;13153;52.316;21.166;2023-09-19T09:26:58;17.55;;;10.18;;
25207;SDS011;13153;52.316;21.166;2023-09-19T09:29:41;17.48;;;10.52;;
25207;SDS011;13153;52.316;21.166;2023-09-19T09:32:22;15.73;;;10.50;;
25207;SDS011;13153;52.316;21.166;2023-09-19T09:34:59;12.70;;;9.82;;
25207;SDS011;13153;52.316;21.166;2023-09-19T09:37:27;13.75;;;11.10;;
25207;SDS011;13153;52.316;21.166;2023-09-19T09:42:45;14.45;;;10.40;;
25207;SDS011;13153;52.316;21.166;2023-09-19T09:48:02;12.75;;;10.32;;
25207;SDS011;13153;52.316;21.166;2023-09-19T09:50:38;15.93;;;10.75;;
25207;SDS011;13153;52.316;21.166;2023-09-19T09:53:24;12.13;;;10.23;;
25207;SDS011;13153;52.316;21.166;2023-09-19T09:56:06;13.90;;;10.63;;
25207;SDS011;13153;52.316;21.166;2023-09-19T10:01:13;16.90;;;10.73;;
25207;SDS011;13153;52.316;21.166;2023-09-19T10:03:41;17.20;;;10.60;;
25207;SDS011;13153;52.316;21.166;2023-09-19T10:06:16;15.80;;;10.70;;
25207;SDS011;13153;52.316;21.166;2023-09-19T10:09:07;15.57;;;10.18;;
25207;SDS011;13153;52.316;21.166;2023-09-19T10:11:43;15.85;;;10.18;;
25207;SDS011;13153;52.316;21.166;2023-09-19T10:16:40;16.38;;;10.50;;
25207;SDS011;13153;52.316;21.166;2023-09-19T10:19:15;14.25;;;9.82;;
25207;SDS011;13153;52.316;21.166;2023-09-19T10:21:51;17.58;;;9.95;;
25207;SDS011;13153;52.316;21.166;2023-09-19T10:24:23;12.02;;;9.10;;
25207;SDS011;13153;52.316;21.166;2023-09-19T10:26:51;13.15;;;9.00;;
25207;SDS011;13153;52.316;21.166;2023-09-19T10:29:19;11.43;;;8.43;;
25207;SDS011;13153;52.316;21.166;2023-09-19T10:31:48;12.07;;;8.70;;
25207;SDS011;13153;52.316;21.166;2023-09-19T10:34:18;10.45;;;7.82;;
25207;SDS011;13153;52.316;21.166;2023-09-19T10:36:47;13.27;;;8.10;;
25207;SDS011;13153;52.316;21.166;2023-09-19T10:39:16;12.25;;;8.65;;
25207;SDS011;13153;52.316;21.166;2023-09-19T10:41:51;12.95;;;8.57;;
25207;SDS011;13153;52.316;21.166;2023-09-19T10:44:24;12.13;;;7.57;;
25207;SDS011;13153;52.316;21.166;2023-09-19T10:46:51;13.00;;;7.80;;
25207;SDS011;13153;52.316;21.166;2023-09-19T10:49:20;13.60;;;7.97;;
25207;SDS011;13153;52.316;21.166;2023-09-19T10:51:47;10.63;;;8.00;;
25207;SDS011;13153;52.316;21.166;2023-09-19T10:54:20;12.40;;;8.55;;
25207;SDS011;13153;52.316;21.166;2023-09-19T10:56:51;10.75;;;7.72;;
25207;SDS011;13153;52.316;21.166;2023-09-19T10:59:19;11.02;;;7.72;;
25207;SDS011;13153;52.316;21.166;2023-09-19T11:01:50;10.75;;;7.95;;
25207;SDS011;13153;52.316;21.166;2023-09-19T11:09:45;9.88;;;7.18;;
25207;SDS011;13153;52.316;21.166;2023-09-19T11:14:56;11.32;;;7.05;;
25207;SDS011;13153;52.316;21.166;2023-09-19T11:17:36;10.13;;;6.75;;
25207;SDS011;13153;52.316;21.166;2023-09-19T11:36:15;12.25;;;6.40;;
25207;SDS011;13153;52.316;21.166;2023-09-19T11:43:52;9.43;;;6.88;;
25207;SDS011;13153;52.316;21.166;2023-09-19T11:46:21;7.72;;;6.00;;
25207;SDS011;13153;52.316;21.166;2023-09-19T11:48:50;9.80;;;5.82;;
25207;SDS011;13153;52.316;21.166;2023-09-19T11:51:18;9.25;;;6.30;;
25207;SDS011;13153;52.316;21.166;2023-09-19T11:53:54;8.05;;;5.70;;
25207;SDS011;13153;52.316;21.166;2023-09-19T11:56:25;8.00;;;5.15;;
25207;SDS011;13153;52.316;21.166;2023-09-19T11:58:56;7.63;;;5.40;;
25207;SDS011;13153;52.316;21.166;2023-09-19T12:03:58;8.95;;;6.10;;
25207;SDS011;13153;52.316;21.166;2023-09-19T12:06:27;6.38;;;5.03;;
25207;SDS011;13153;52.316;21.166;2023-09-19T12:08:54;7.07;;;4.90;;
25207;SDS011;13153;52.316;21.166;2023-09-19T12:11:22;9.15;;;5.35;;
25207;SDS011;13153;52.316;21.166;2023-09-19T12:13:49;9.45;;;5.38;;
25207;SDS011;13153;52.316;21.166;2023-09-19T12:16:19;6.90;;;5.05;;
25207;SDS011;13153;52.316;21.166;2023-09-19T12:18:47;8.40;;;5.00;;
25207;SDS011;13153;52.316;21.166;2023-09-19T12:21:21;8.88;;;4.78;;
25207;SDS011;13153;52.316;21.166;2023-09-19T12:26:39;7.70;;;4.93;;
25207;SDS011;13153;52.316;21.166;2023-09-19T12:29:14;5.50;;;4.40;;
25207;SDS011;13153;52.316;21.166;2023-09-19T12:31:58;6.68;;;4.85;;
25207;SDS011;13153;52.316;21.166;2023-09-19T12:34:28;8.35;;;4.88;;
25207;SDS011;13153;52.316;21.166;2023-09-19T12:39:44;7.97;;;5.38;;
25207;SDS011;13153;52.316;21.166;2023-09-19T12:42:25;12.60;;;5.25;;
25207;SDS011;13153;52.316;21.166;2023-09-19T12:44:57;9.10;;;5.18;;
25207;SDS011;13153;52.316;21.166;2023-09-19T12:47:26;8.88;;;5.30;;
25207;SDS011;13153;52.316;21.166;2023-09-19T12:52:47;8.43;;;5.90;;
25207;SDS011;13153;52.316;21.166;2023-09-19T12:58:00;8.75;;;5.60;;
25207;SDS011;13153;52.316;21.166;2023-09-19T13:00:35;9.70;;;6.18;;
25207;SDS011;13153;52.316;21.166;2023-09-19T13:03:13;9.50;;;6.22;;
25207;SDS011;13153;52.316;21.166;2023-09-19T13:05:53;7.63;;;6.03;;
25207;SDS011;13153;52.316;21.166;2023-09-19T13:08:29;9.32;;;6.57;;
25207;SDS011;13153;52.316;21.166;2023-09-19T13:13:48;7.65;;;5.70;;
25207;SDS011;13153;52.316;21.166;2023-09-19T13:16:52;10.27;;;5.90;;
25207;SDS011;13153;52.316;21.166;2023-09-19T13:25:20;7.55;;;5.95;;
25207;SDS011;13153;52.316;21.166;2023-09-19T13:30:19;16.05;;;10.93;;
25207;SDS011;13153;52.316;21.166;2023-09-19T13:32:47;12.02;;;8.02;;
25207;SDS011;13153;52.316;21.166;2023-09-19T13:35:13;9.95;;;6.80;;
25207;SDS011;13153;52.316;21.166;2023-09-19T13:37:40;9.68;;;6.30;;
25207;SDS011;13153;52.316;21.166;2023-09-19T13:40:11;10.30;;;5.82;;
25207;SDS011;13153;52.316;21.166;2023-09-19T13:42:39;10.35;;;6.25;;
25207;SDS011;13153;52.316;21.166;2023-09-19T13:45:06;9.25;;;6.25;;
25207;SDS011;13153;52.316;21.166;2023-09-19T13:47:37;8.50;;;6.10;;
25207;SDS011;13153;52.316;21.166;2023-09-19T13:50:03;11.55;;;6.53;;
25207;SDS011;13153;52.316;21.166;2023-09-19T13:52:31;9.55;;;6.47;;
25207;SDS011;13153;52.316;21.166;2023-09-19T13:54:57;9.07;;;6.30;;
25207;SDS011;13153;52.316;21.166;2023-09-19T13:57:24;9.60;;;6.38;;
25207;SDS011;13153;52.316;21.166;2023-09-19T13:59:51;13.23;;;7.60;;
25207;SDS011;13153;52.316;21.166;2023-09-19T14:02:19;10.50;;;7.07;;
25207;SDS011;13153;52.316;21.166;2023-09-19T14:04:47;8.35;;;6.07;;
25207;SDS011;13153;52.316;21.166;2023-09-19T14:07:14;9.98;;;7.25;;
25207;SDS011;13153;52.316;21.166;2023-09-19T14:09:42;10.93;;;7.20;;
25207;SDS011;13153;52.316;21.166;2023-09-19T14:12:08;10.65;;;6.72;;
25207;SDS011;13153;52.316;21.166;2023-09-19T14:14:34;10.57;;;6.97;;
25207;SDS011;13153;52.316;21.166;2023-09-19T14:17:00;11.13;;;7.05;;
25207;SDS011;13153;52.316;21.166;2023-09-19T14:19:28;10.18;;;7.43;;
25207;SDS011;13153;52.316;21.166;2023-09-19T14:21:54;12.05;;;7.03;;
25207;SDS011;13153;52.316;21.166;2023-09-19T14:24:20;12.35;;;7.68;;
25207;SDS011;13153;52.316;21.166;2023-09-19T14:26:47;14.10;;;7.38;;
25207;SDS011;13153;52.316;21.166;2023-09-19T14:29:14;14.95;;;7.63;;
25207;SDS011;13153;52.316;21.166;2023-09-19T14:31:41;10.68;;;7.00;;
25207;SDS011;13153;52.316;21.166;2023-09-19T14:34:08;11.15;;;7.28;;
25207;SDS011;13153;52.316;21.166;2023-09-19T14:36:37;12.55;;;7.20;;
25207;SDS011;13153;52.316;21.166;2023-09-19T14:39:06;10.02;;;6.80;;
25207;SDS011;13153;52.316;21.166;2023-09-19T14:41:33;12.18;;;7.45;;
25207;SDS011;13153;52.316;21.166;2023-09-19T14:43:59;13.85;;;7.30;;
25207;SDS011;13153;52.316;21.166;2023-09-19T14:46:27;10.85;;;7.32;;
25207;SDS011;13153;52.316;21.166;2023-09-19T14:48:53;9.60;;;6.95;;
25207;SDS011;13153;52.316;21.166;2023-09-19T14:51:24;10.88;;;7.22;;
25207;SDS011;13153;52.316;21.166;2023-09-19T14:53:50;10.40;;;6.70;;
25207;SDS011;13153;52.316;21.166;2023-09-19T14:56:16;13.50;;;7.65;;
25207;SDS011;13153;52.316;21.166;2023-09-19T14:58:43;11.45;;;7.32;;
25207;SDS011;13153;52.316;21.166;2023-09-19T15:01:10;10.27;;;6.90;;
25207;SDS011;13153;52.316;21.166;2023-09-19T15:03:38;12.93;;;7.03;;
25207;SDS011;13153;52.316;21.166;2023-09-19T15:06:07;12.80;;;7.13;;
25207;SDS011;13153;52.316;21.166;2023-09-19T15:08:41;11.98;;;6.50;;
25207;SDS011;13153;52.316;21.166;2023-09-19T15:11:12;9.25;;;6.90;;
25207;SDS011;13153;52.316;21.166;2023-09-19T15:13:43;15.90;;;10.30;;
25207;SDS011;13153;52.316;21.166;2023-09-19T15:16:10;20.02;;;10.57;;
25207;SDS011;13153;52.316;21.166;2023-09-19T15:18:38;13.63;;;9.23;;
25207;SDS011;13153;52.316;21.166;2023-09-19T15:21:07;10.93;;;6.88;;
25207;SDS011;13153;52.316;21.166;2023-09-19T15:23:38;11.68;;;7.82;;
25207;SDS011;13153;52.316;21.166;2023-09-19T15:26:05;11.88;;;7.85;;
25207;SDS011;13153;52.316;21.166;2023-09-19T15:28:42;11.57;;;7.45;;
25207;SDS011;13153;52.316;21.166;2023-09-19T15:31:08;10.73;;;7.22;;
25207;SDS011;13153;52.316;21.166;2023-09-19T15:33:37;10.80;;;6.50;;
25207;SDS011;13153;52.316;21.166;2023-09-19T15:36:04;9.23;;;5.90;;
25207;SDS011;13153;52.316;21.166;2023-09-19T15:38:32;11.25;;;6.70;;
25207;SDS011;13153;52.316;21.166;2023-09-19T15:41:32;8.07;;;6.13;;
25207;SDS011;13153;52.316;21.166;2023-09-19T15:44:00;10.27;;;6.43;;
25207;SDS011;13153;52.316;21.166;2023-09-19T15:46:28;12.95;;;6.25;;
25207;SDS011;13153;52.316;21.166;2023-09-19T15:49:02;10.68;;;5.80;;
25207;SDS011;13153;52.316;21.166;2023-09-19T15:51:28;11.50;;;7.22;;
25207;SDS011;13153;52.316;21.166;2023-09-19T15:53:55;12.73;;;7.47;;
25207;SDS011;13153;52.316;21.166;2023-09-19T15:56:22;12.15;;;7.57;;
25207;SDS011;13153;52.316;21.166;2023-09-19T15:58:52;15.43;;;9.30;;
25207;SDS011;13153;52.316;21.166;2023-09-19T16:01:20;12.10;;;7.18;;
25207;SDS011;13153;52.316;21.166;2023-09-19T16:03:48;8.43;;;6.20;;
25207;SDS011;13153;52.316;21.166;2023-09-19T16:06:21;9.65;;;6.28;;